Time;durP1;ratioP1;P1;durP2;ratioP2;P2;SDS_P1;SDS_P2;PMS_P1;PMS_P2;Temp;Humidity;BMP_temperature;BMP_pressure;BME280_temperature;BME280_humidity;BME280_pressure;Samples;Min_cycle;Max_cycle;Signal;HPM_P1;HPM_P2
2022/02/03 00:00:02;;;;;;;19.20;6.30;;;4.20;99.90;;;;;;5175819;28;20436;-46
2022/02/03 00:02:44;;;;;;;17.88;6.03;;;;;;;;;;5221232;28;20051;-50
2022/02/03 00:05:24;;;;;;;11.63;5.60;;;;;;;;;;5221191;28;20045;-45
2022/02/03 00:08:24;;;;;;;13.95;6.40;;;4.10;99.90;;;;;;5221466;28;20045;-46
2022/02/03 00:17:00;;;;;;;15.88;6.57;;;;;;;;;;5216864;28;20049;-49
2022/02/03 00:22:51;;;;;;;16.33;6.68;;;;;;;;;;5217417;28;20408;-45
2022/02/03 00:25:30;;;;;;;13.10;6.45;;;;;;;;;;5218648;28;20041;-42
2022/02/03 00:28:13;;;;;;;18.10;7.07;;;4.20;99.90;;;;;;5215865;28;20552;-46
2022/02/03 00:31:03;;;;;;;18.33;6.07;;;;;;;;;;5215904;28;20053;-50
2022/02/03 00:33:49;;;;;;;17.67;6.82;;;4.20;99.90;;;;;;5216021;28;20045;-47
2022/02/03 00:36:27;;;;;;;12.27;6.03;;;;;;;;;;5213981;28;20060;-43
2022/02/03 00:50:23;;;;;;;17.05;6.75;;;;;;;;;;5217650;28;20492;-44
2022/02/03 00:52:57;;;;;;;13.95;6.93;;;;;;;;;;5212629;28;20052;-42
2022/02/03 00:55:35;;;;;;;13.07;6.88;;;4.30;99.90;;;;;;5203007;28;20040;-48
2022/02/03 00:58:08;;;;;;;14.75;7.68;;;;;;;;;;5212195;28;20083;-47
2022/02/03 01:00:46;;;;;;;16.90;7.50;;;4.30;99.90;;;;;;5211912;28;20056;-50
2022/02/03 01:03:25;;;;;;;15.23;8.30;;;4.30;99.90;;;;;;5212475;28;20049;-48
2022/02/03 01:06:00;;;;;;;14.80;7.72;;;4.30;99.90;;;;;;5212845;28;20040;-45
2022/02/03 01:08:41;;;;;;;15.98;8.15;;;4.30;99.90;;;;;;5214441;28;20043;-46
2022/02/03 01:11:20;;;;;;;14.73;8.00;;;;;;;;;;5218598;28;20439;-45
2022/02/03 01:14:06;;;;;;;23.95;9.82;;;4.30;99.90;;;;;;5201625;28;20757;-49
2022/02/03 01:45:15;;;;;;;13.13;7.60;;;4.30;99.90;;;;;;5217002;28;20448;-49
2022/02/03 01:53:29;;;;;;;14.45;8.18;;;4.20;99.90;;;;;;5218405;28;20052;-47
2022/02/03 01:56:11;;;;;;;16.33;8.00;;;4.20;99.90;;;;;;5214524;28;20519;-44
2022/02/03 01:58:46;;;;;;;14.73;7.68;;;4.20;99.90;;;;;;5209510;28;20060;-45
2022/02/03 02:01:28;;;;;;;16.58;7.30;;;4.20;99.90;;;;;;5211483;28;20041;-45
2022/02/03 02:04:34;;;;;;;14.75;8.23;;;4.30;99.90;;;;;;5217011;28;20044;-46
2022/02/03 02:07:07;;;;;;;14.80;7.93;;;;;;;;;;5212976;28;20048;-47
2022/02/03 02:10:36;;;;;;;16.17;7.22;;;4.20;99.90;;;;;;5212212;28;20063;-46
2022/02/03 02:16:34;;;;;;;15.00;7.45;;;;;;;;;;5214387;28;20048;-48
2022/02/03 02:19:25;;;;;;;12.65;6.85;;;4.20;99.90;;;;;;5213237;28;20053;-47
2022/02/03 02:43:05;;;;;;;13.68;7.40;;;4.20;99.90;;;;;;5179291;28;20052;-46
2022/02/03 02:46:01;;;;;;;13.98;7.28;;;4.30;99.90;;;;;;5221604;28;20145;-48
2022/02/03 02:48:34;;;;;;;12.10;7.43;;;;;;;;;;5222452;28;20041;-50
2022/02/03 02:51:20;;;;;;;12.13;7.23;;;;;;;;;;5220912;28;20041;-46
2022/02/03 02:57:40;;;;;;;11.75;7.45;;;4.30;99.90;;;;;;5220567;28;20056;-45
2022/02/03 03:37:28;;;;;;;12.88;7.03;;;4.50;99.90;;;;;;5210053;28;20397;-48
2022/02/03 03:40:03;;;;;;;12.32;6.57;;;4.50;99.90;;;;;;5202091;28;20489;-47
2022/02/03 03:42:39;;;;;;;12.18;6.80;;;4.50;99.90;;;;;;5213880;28;20048;-46
2022/02/03 03:45:12;;;;;;;9.27;5.25;;;;;;;;;;5213674;28;20526;-50
2022/02/03 03:47:47;;;;;;;9.90;5.22;;;4.50;99.90;;;;;;5218418;28;20044;-48
2022/02/03 03:50:27;;;;;;;7.40;4.93;;;4.60;99.90;;;;;;5203020;28;20882;-44
2022/02/03 03:53:13;;;;;;;11.95;5.50;;;4.60;99.90;;;;;;5203848;28;20862;-45
2022/02/03 03:55:59;;;;;;;12.73;5.93;;;4.60;99.90;;;;;;5215246;28;20059;-47
2022/02/03 04:32:29;;;;;;;7.63;5.18;;;4.70;99.90;;;;;;5216301;28;20053;-50
2022/02/03 05:08:04;;;;;;;7.07;3.63;;;4.70;99.90;;;;;;5212734;28;20041;-47
2022/02/03 05:26:55;;;;;;;;;;;4.80;99.90;;;;;;5204836;28;20044;-46
2022/02/03 05:42:30;;;;;;;7.90;2.85;;;4.70;99.90;;;;;;5214348;28;20037;-47
